LFLC Airport Information

Runway Information
Runway 01 Length 2313 ft width 197 ft
Elevation 1092 ft Threshold 0 ft Heading 8
Runway 19 Length 2313 ft Width 197 ft
Elevation 1083 ft Threshold 0 ft Heading 188
Runway 08 Length 9885 ft width 148 ft
Elevation 1089 ft Threshold 0 ft Heading 82
Runway 26 Length 9885 ft Width 148 ft
Elevation 1057 ft Threshold 476 ft Heading 262
Runway 08L Length 2953 ft width 161 ft
Elevation 1072 ft Threshold 0 ft Heading 82
Runway 26R Length 2953 ft Width 161 ft
Elevation 1063 ft Threshold 0 ft Heading 262
Airport Frequencies
Type APP Name CLERMONT A Frequency 119.375 MHZ
Type APP Name CLERMONT A Frequency 122.225 MHZ
Type ATIS Name CLERMONT A Frequency 136.4 MHZ
Type FIS Name CLERMONT I Frequency 122.225 MHZ
Type GND Name CLERMONT G Frequency 121.95 MHZ
Type TWR Name CLERMONT T Frequency 118.625 MHZ
Airport Navaids
Type VOR-DME Name Clermont Frequency 114350 KHZ
Airport Weather Information & NOTAM
ADDS - METARS form results

(0441 UTC 16 October 2019)
Data provider http://aviationweather.gov/metar/data/
 
METAR text: LFLC 160430Z AUTO 18013KT CAVOK 09/07 Q1016 NOSIG
Conditions at: LFLC (CLERMONT/AULNAT , FR) observed 0430 UTC 16 October 2019
Temperature: 9.0°C (48°F)
Dewpoint: 7.0°C (45°F) [RH = 87%]
Pressure (altimeter): 30.00 inches Hg (1016.0 mb)
Winds: from the S (180 degrees) at 15 MPH (13 knots; 6.7 m/s)
Visibility: 6 or more miles (10+ km)
Ceiling: ceiling and visibility are OK
Clouds: unknown
Weather: no significant weather observed at this time

METAR text: LFLC 160400Z AUTO 18012KT CAVOK 09/07 Q1016 NOSIG
Conditions at: LFLC (CLERMONT/AULNAT , FR) observed 0400 UTC 16 October 2019
Temperature: 9.0°C (48°F)
Dewpoint: 7.0°C (45°F) [RH = 87%]
Pressure (altimeter): 30.00 inches Hg (1016.0 mb)
Winds: from the S (180 degrees) at 14 MPH (12 knots; 6.2 m/s)
Visibility: 6 or more miles (10+ km)
Ceiling: ceiling and visibility are OK
Clouds: unknown
Weather: no significant weather observed at this time

Forecast for: LFLC (CLERMONT/AULNAT , FR)
Text: TAF LFLC 160200Z 1603/1703 18009KT CAVOK
Forecast period: 0300 UTC 16 October 2019 to 0100 UTC 17 October 2019
Forecast type: FROM: standard forecast or significant change
Winds: from the S (180 degrees) at 10 MPH (9 knots; 4.6 m/s)
Visibility: 6 or more miles 10+ km)
Ceiling: unknown
Clouds: missing
Weather: NSW  (no significant weather)
Text: BECMG 1701/1703 BKN040
Forecast period: 0100 to 0300 UTC 17 October 2019
Forecast type: BECOMING: Conditions expected to become as follows by 0300 UTC 17 October 2019
Winds: from the S (180 degrees) at 10 MPH (9 knots; 4.6 m/s)
Visibility: 6 or more miles 10+ km)
Ceiling: 4000 feet AGL
Clouds: broken clouds at 4000 feet AGL
Weather: NSW  (no significant weather)